Terminal Aerodrome Forecast
Issued by NWS Topeka, KS

Home | Current Version | Previous Version | Text Only | Print | Product List | Glossary On
Versions: 1 2 3 4 5 6 7 8 9 10 11 12 13 14 15 16 17 18 19 20 21 22
882
FTUS43 KTOP 261801 AAA
TAFTOP
TAF AMD
KTOP 261801Z 2618/2718 14010G19KT P6SM BKN050
      TEMPO 2618/2620 4SM TSRA OVC020CB
     FM262100 16011G19KT P6SM TSRA BKN025CB
     FM270100 15012KT P6SM VCTS SCT025 BKN040CB
     FM270400 15012KT 5SM TSRA OVC035CB
     FM270700 14008KT P6SM BKN020=

USA.gov is the U.S. government's official web portal to all federal, state and local government web resources and services.